Kezdőlap
METAR-TAF:

METAR-TAF

Repülőterek :

Volgográd, Oroszország

földrajzi szélesség: 48-47N, földrajzi hosszúság: 044-22E, magasság: 145 m

Jelenlegi meteorológiai megfigyelések

A jelentés 28 perccel ezelõtt készült, 13:30 UTC
Északi szél 4 kt
Hőmérséklet 32°C
Páratartalom 23%
Légköri nyomás 1016 hPa
Látótávolság 10 km, vagy több
felhőtlen 1500 m magasságban, és nincs gomolyfelhõ

METAR: URWW 161330Z 36002MPS CAVOK 32/08 Q1016 R06/010070 NOSIG

Idő: 16:58 (13:58 UTC)

Előrejelzés

A jelentés 3 órával és 1 perccel ezelõtt készült, 10:57 UTC
Az előrejelzés 16-én 12 óra UTC és 16-én 21 óra UTC között érvényes
Kelet-északkeleti szél 6 kt széllökések: 16 kt
Látótávolság 10 km, vagy több
Szórványos felhőzet 4000 lábon
16-én 12 óra UTC és 16-én 21 óra UTC között ideiglenes
Kelet-délkeleti szél 6 kt széllökések: 16 kt

TAF: URWW 161057Z 1612/1621 06003G08MPS 9999 SCT040 TEMPO 1612/1621 11003G08MPS

Meteorológiai megfigyelések és előrejelzések több, mint 4000 repülőtéren (METAR és TAF jelentéseket).

A térképen piros és sárga pontok jelzik az elérhető meteorológiai állomásokat.

Mozgassa az egeret a pont fölött, hogy megjelenjen az állomás neve.

Azután kattintson az időjárási megfigyelések és előrejelzések megtekintéséhez.

A térkép megváltoztatása: kattintson a fekete keresztel jelölt zöld gombra ráközelítéshez, a vonallal jelölt zöld gombra távolításhoz, vagy a zöld nyilakra a szomszédos térképek eléréséhez.


METAR-TAF: